createdAt,value
2018-12-26T00:02:19.743Z,-0.80
2018-12-26T00:04:48.971Z,-0.70
2018-12-26T00:07:18.457Z,-0.80
2018-12-26T00:09:47.046Z,-0.80
2018-12-26T00:12:15.801Z,-0.60
2018-12-26T00:14:44.792Z,-0.60
2018-12-26T00:17:13.886Z,-0.60
2018-12-26T00:19:42.942Z,-0.60
2018-12-26T00:22:12.844Z,-0.80
2018-12-26T00:24:41.361Z,-0.70
2018-12-26T00:27:10.056Z,-0.70
2018-12-26T00:29:38.655Z,-0.70
2018-12-26T00:32:07.526Z,-0.70
2018-12-26T00:34:36.666Z,-0.70
2018-12-26T00:37:05.410Z,-0.60
2018-12-26T00:39:34.023Z,-0.60
2018-12-26T00:42:03.110Z,-0.50
2018-12-26T00:44:31.869Z,-0.60
2018-12-26T00:47:00.908Z,-0.50
2018-12-26T00:49:29.589Z,-0.50
2018-12-26T00:51:58.564Z,-0.60
2018-12-26T00:54:27.227Z,-0.60
2018-12-26T00:56:55.948Z,-0.50
2018-12-26T00:59:24.615Z,-0.60
2018-12-26T01:01:54.468Z,-0.60
2018-12-26T01:04:23.073Z,-0.50
2018-12-26T01:06:51.872Z,-0.50
2018-12-26T01:09:20.565Z,-0.50
2018-12-26T01:11:49.291Z,-0.50
2018-12-26T01:14:17.967Z,-0.60
2018-12-26T01:16:46.714Z,-0.60
2018-12-26T01:19:15.337Z,-0.60
2018-12-26T01:21:44.122Z,-0.80
2018-12-26T01:24:13.094Z,-0.70
2018-12-26T01:26:41.859Z,-0.70
2018-12-26T01:29:10.647Z,-0.70
2018-12-26T01:31:39.309Z,-0.80
2018-12-26T01:34:08.011Z,-0.80
2018-12-26T01:36:36.743Z,-0.70
2018-12-26T01:39:06.489Z,-0.70
2018-12-26T01:41:35.133Z,-0.70
2018-12-26T01:44:04.218Z,-0.70
2018-12-26T01:46:32.879Z,-0.80
2018-12-26T01:49:01.551Z,-0.80
2018-12-26T01:51:30.149Z,-0.80
2018-12-26T01:53:59.254Z,-0.70
2018-12-26T01:56:28.396Z,-0.70
2018-12-26T01:58:57.041Z,-0.70
2018-12-26T02:01:26.129Z,-0.70
2018-12-26T02:03:54.987Z,-0.70
2018-12-26T02:06:23.782Z,-0.70
2018-12-26T02:08:52.419Z,-0.70
2018-12-26T02:11:21.391Z,-0.70
2018-12-26T02:13:50.035Z,-0.70
2018-12-26T02:16:18.861Z,-0.70
2018-12-26T02:18:47.483Z,-0.70
2018-12-26T02:21:16.389Z,-0.70
2018-12-26T02:23:45.082Z,-0.70
2018-12-26T02:26:13.733Z,-0.80
2018-12-26T02:28:42.792Z,-0.70
2018-12-26T02:31:11.481Z,-0.70
2018-12-26T02:33:40.332Z,-0.80
2018-12-26T02:36:08.995Z,-0.80
2018-12-26T02:38:37.696Z,-0.80
2018-12-26T02:41:06.716Z,-0.80
2018-12-26T02:43:35.472Z,-0.80
2018-12-26T02:46:04.157Z,-0.80
2018-12-26T02:48:32.852Z,-0.80
2018-12-26T02:51:01.935Z,-0.80
2018-12-26T02:53:31.080Z,-0.80
2018-12-26T02:55:59.702Z,-0.80
2018-12-26T02:58:28.399Z,-0.80
2018-12-26T03:00:56.993Z,-0.80
2018-12-26T03:03:26.274Z,-0.90
2018-12-26T03:05:55.006Z,-0.90
2018-12-26T03:08:23.980Z,-0.90
2018-12-26T03:10:52.988Z,-0.90
2018-12-26T03:13:21.732Z,-0.90
2018-12-26T03:15:50.347Z,-0.90
2018-12-26T03:18:19.022Z,-0.90
2018-12-26T03:20:47.724Z,-0.90
2018-12-26T03:23:16.342Z,-0.90
2018-12-26T03:25:45.387Z,-0.90
2018-12-26T03:28:14.148Z,-0.80
2018-12-26T03:30:42.936Z,-0.90
2018-12-26T03:33:11.760Z,-0.90
2018-12-26T03:35:40.410Z,-0.80
2018-12-26T03:38:09.186Z,-0.90
2018-12-26T03:40:39.918Z,-0.90
2018-12-26T03:43:08.600Z,-0.90
2018-12-26T03:45:37.662Z,-1.00
2018-12-26T03:48:06.426Z,-1.00
2018-12-26T03:50:35.143Z,-1.00
2018-12-26T03:53:04.002Z,-1.00
2018-12-26T03:55:32.990Z,-1.10
2018-12-26T03:58:01.777Z,-1.00
2018-12-26T04:00:30.433Z,-1.00
2018-12-26T04:02:59.201Z,-0.90
2018-12-26T04:05:27.991Z,-0.90
2018-12-26T04:07:57.320Z,-0.90
2018-12-26T04:10:26.366Z,-0.80
2018-12-26T04:12:55.318Z,-0.90
2018-12-26T04:15:24.160Z,-0.90
2018-12-26T04:17:52.829Z,-0.90
2018-12-26T04:20:21.982Z,-0.90
2018-12-26T04:22:50.938Z,-0.90
2018-12-26T04:25:19.790Z,-0.80
2018-12-26T04:27:48.607Z,-0.80
2018-12-26T04:30:17.640Z,-0.70
2018-12-26T04:32:46.275Z,-0.70
2018-12-26T04:35:15.008Z,-0.70
2018-12-26T04:37:43.649Z,-0.70
2018-12-26T04:40:12.303Z,-0.80
2018-12-26T04:42:40.965Z,-0.80
2018-12-26T04:45:09.961Z,-0.80
2018-12-26T04:47:38.695Z,-0.80
2018-12-26T04:50:07.453Z,-0.80
2018-12-26T04:52:36.051Z,-0.90
2018-12-26T04:55:05.063Z,-0.90
2018-12-26T04:57:33.660Z,-0.80
2018-12-26T05:00:02.270Z,-0.80
2018-12-26T05:02:31.203Z,-0.80
2018-12-26T05:04:59.873Z,-0.80
2018-12-26T05:07:28.588Z,-0.80
2018-12-26T05:09:58.937Z,-0.80
2018-12-26T05:12:27.489Z,-0.80
2018-12-26T05:14:56.602Z,-0.80
2018-12-26T05:17:25.782Z,-0.80
2018-12-26T05:19:54.791Z,-0.80
2018-12-26T05:22:23.650Z,-0.80
2018-12-26T05:24:52.540Z,-0.80
2018-12-26T05:27:21.310Z,-0.70
2018-12-26T05:29:50.247Z,-0.70
2018-12-26T05:32:18.904Z,-0.70
2018-12-26T05:34:47.487Z,-0.70
2018-12-26T05:37:16.114Z,-0.60
2018-12-26T05:39:44.705Z,-0.60
2018-12-26T05:42:13.326Z,-0.60
2018-12-26T05:44:42.018Z,-0.50
2018-12-26T05:47:11.031Z,-0.50
2018-12-26T05:49:39.624Z,-0.40
2018-12-26T05:52:08.317Z,-0.30
2018-12-26T05:54:36.985Z,-0.20
2018-12-26T05:57:05.685Z,-0.20
2018-12-26T05:59:34.268Z,-0.10
2018-12-26T06:02:02.905Z,-0.10
2018-12-26T06:04:31.499Z,-0.20
2018-12-26T06:07:00.126Z,0.00
2018-12-26T06:09:29.107Z,0.10
2018-12-26T06:11:58.740Z,0.10
2018-12-26T06:14:27.353Z,0.00
2018-12-26T06:16:56.039Z,0.10
2018-12-26T06:19:24.700Z,0.00
2018-12-26T06:21:54.858Z,0.00
2018-12-26T06:24:23.425Z,0.00
2018-12-26T06:26:52.513Z,0.00
2018-12-26T06:29:21.132Z,0.00
2018-12-26T06:31:50.495Z,-0.10
2018-12-26T06:34:19.184Z,0.00
2018-12-26T06:36:48.114Z,0.10
2018-12-26T06:39:16.734Z,0.00
2018-12-26T06:41:45.672Z,0.10
2018-12-26T06:44:14.322Z,0.00
2018-12-26T06:46:42.919Z,0.00
2018-12-26T06:49:11.533Z,0.10
2018-12-26T06:51:40.629Z,-0.10
2018-12-26T06:54:09.272Z,-0.20
2018-12-26T06:56:37.869Z,-0.20
2018-12-26T06:59:06.479Z,-0.40
2018-12-26T07:01:35.570Z,-0.40
2018-12-26T07:04:04.171Z,-0.50
2018-12-26T07:06:32.791Z,-0.40
2018-12-26T07:09:01.476Z,-0.50
2018-12-26T07:11:30.165Z,-0.50
2018-12-26T07:13:59.081Z,-0.50
2018-12-26T07:16:27.733Z,-0.60
2018-12-26T07:18:56.366Z,-0.70
2018-12-26T07:21:24.963Z,-0.60
2018-12-26T07:23:53.685Z,-0.60
2018-12-26T07:26:22.371Z,-0.60
2018-12-26T07:28:51.098Z,-0.50
2018-12-26T07:31:19.681Z,-0.60
2018-12-26T07:33:48.272Z,-0.40
2018-12-26T07:36:16.904Z,-0.40
2018-12-26T07:38:45.497Z,-0.30
2018-12-26T07:41:14.095Z,-0.30
2018-12-26T07:43:44.926Z,-0.20
2018-12-26T07:46:13.525Z,-0.10
2018-12-26T07:48:42.172Z,-0.10
2018-12-26T07:51:11.181Z,0.00
2018-12-26T07:53:39.784Z,0.00
2018-12-26T07:56:08.421Z,0.00
2018-12-26T07:58:37.009Z,0.00
2018-12-26T08:01:06.995Z,0.10
2018-12-26T08:03:35.958Z,0.10
2018-12-26T08:06:06.010Z,0.10
2018-12-26T08:08:34.653Z,0.30
2018-12-26T08:11:03.215Z,0.30
2018-12-26T08:13:32.182Z,0.30
2018-12-26T08:16:00.873Z,0.30
2018-12-26T08:18:29.453Z,0.30
2018-12-26T08:20:59.359Z,0.30
2018-12-26T08:23:28.045Z,0.50
2018-12-26T08:25:56.657Z,0.80
2018-12-26T08:28:26.792Z,1.30
2018-12-26T08:30:55.593Z,1.50
2018-12-26T08:33:24.206Z,1.70
2018-12-26T08:35:52.901Z,2.00
2018-12-26T08:38:21.580Z,2.10
2018-12-26T08:40:50.174Z,2.20
2018-12-26T08:43:18.852Z,2.30
2018-12-26T08:45:47.437Z,2.50
2018-12-26T08:48:16.351Z,3.30
2018-12-26T08:50:45.252Z,3.70
2018-12-26T08:53:13.831Z,3.50
2018-12-26T08:55:42.518Z,3.50
2018-12-26T08:58:11.160Z,3.70
2018-12-26T09:00:40.198Z,3.90
2018-12-26T09:03:09.089Z,4.00
2018-12-26T09:05:37.682Z,4.20
2018-12-26T09:08:06.337Z,3.80
2018-12-26T09:10:35.037Z,4.00
2018-12-26T09:13:04.008Z,3.90
2018-12-26T09:15:32.698Z,4.10
2018-12-26T09:18:01.351Z,4.20
2018-12-26T09:20:30.134Z,4.30
2018-12-26T09:22:59.239Z,4.50
2018-12-26T09:25:27.992Z,4.50
2018-12-26T09:27:56.569Z,4.00
2018-12-26T09:30:25.282Z,4.30
2018-12-26T09:32:54.319Z,4.40
2018-12-26T09:35:24.425Z,4.90
2018-12-26T09:37:53.074Z,4.90
2018-12-26T09:40:21.759Z,4.50
2018-12-26T09:42:50.673Z,4.10
2018-12-26T09:45:19.330Z,4.20
2018-12-26T09:47:48.166Z,3.80
2018-12-26T09:50:16.701Z,4.00
2018-12-26T09:52:45.312Z,3.60
2018-12-26T09:55:14.197Z,3.60
2018-12-26T09:57:42.802Z,3.80
2018-12-26T10:00:11.438Z,3.70
2018-12-26T10:02:40.121Z,3.40
2018-12-26T10:05:10.210Z,3.40
2018-12-26T10:07:39.158Z,3.50
2018-12-26T10:10:08.483Z,3.20
2018-12-26T10:12:37.079Z,3.20
2018-12-26T10:15:08.155Z,3.10
2018-12-26T10:17:36.768Z,3.40
2018-12-26T10:20:06.570Z,3.40
2018-12-26T10:22:35.232Z,3.30
2018-12-26T11:07:07.994Z,3.70
2018-12-26T11:09:36.880Z,3.90
2018-12-26T11:12:05.495Z,3.70
2018-12-26T11:14:34.103Z,3.80
2018-12-26T11:17:02.780Z,3.90
2018-12-26T11:19:31.721Z,4.10
2018-12-26T11:22:00.374Z,4.30
2018-12-26T11:24:29.388Z,4.50
2018-12-26T11:26:58.014Z,4.40
2018-12-26T11:29:26.736Z,4.30
2018-12-26T11:31:55.874Z,4.10
2018-12-26T11:34:25.856Z,4.20
2018-12-26T11:36:54.574Z,4.30
2018-12-26T11:39:23.373Z,4.30
2018-12-26T11:41:52.034Z,4.40
2018-12-26T11:44:20.935Z,4.40
2018-12-26T11:46:49.807Z,4.60
2018-12-26T11:49:18.565Z,4.50
2018-12-26T11:51:47.480Z,4.50
2018-12-26T11:54:16.140Z,4.50
2018-12-26T11:56:44.766Z,4.40
2018-12-26T11:59:13.325Z,4.50
2018-12-26T12:01:42.149Z,4.50
2018-12-26T12:04:10.832Z,4.50
2018-12-26T12:06:39.557Z,4.80
2018-12-26T12:09:08.346Z,4.70
2018-12-26T12:11:37.028Z,4.40
2018-12-26T12:14:05.772Z,4.30
2018-12-26T12:16:34.528Z,4.50
2018-12-26T12:19:03.232Z,4.60
2018-12-26T12:21:31.933Z,4.60
2018-12-26T12:24:01.009Z,4.40
2018-12-26T12:26:29.609Z,4.50
2018-12-26T12:28:58.218Z,4.80
2018-12-26T12:31:26.858Z,4.80
2018-12-26T12:33:55.834Z,5.00
2018-12-26T12:36:24.593Z,5.00
2018-12-26T12:38:53.273Z,5.00
2018-12-26T12:41:22.007Z,5.00
2018-12-26T12:43:50.747Z,5.20
2018-12-26T12:46:19.764Z,5.20
2018-12-26T12:48:48.935Z,4.90
2018-12-26T12:51:17.663Z,5.10
2018-12-26T12:53:47.112Z,5.00
2018-12-26T12:56:15.834Z,5.30
2018-12-26T12:58:44.638Z,5.30
2018-12-26T13:01:13.610Z,5.00
2018-12-26T13:03:46.540Z,5.00
2018-12-26T13:06:13.149Z,4.90
2018-12-26T13:08:42.231Z,5.00
2018-12-26T13:11:10.906Z,5.00
2018-12-26T13:13:39.479Z,5.20
2018-12-26T13:16:08.074Z,5.20
2018-12-26T13:18:36.663Z,5.00
2018-12-26T13:21:05.269Z,5.10
2018-12-26T13:23:33.933Z,4.90
2018-12-26T13:26:02.621Z,4.80
2018-12-26T13:28:31.204Z,5.00
2018-12-26T13:31:05.070Z,4.90
2018-12-26T13:33:30.581Z,4.80
2018-12-26T13:35:59.221Z,4.80
2018-12-26T13:38:28.193Z,4.90
2018-12-26T13:40:56.788Z,4.80
2018-12-26T13:43:25.374Z,4.80
2018-12-26T13:45:54.099Z,4.80
2018-12-26T13:48:24.263Z,4.70
2018-12-26T13:50:52.843Z,4.80
2018-12-26T13:53:21.483Z,5.00
2018-12-26T13:55:50.112Z,5.10
2018-12-26T13:58:19.086Z,5.00
2018-12-26T14:00:47.843Z,5.00
2018-12-26T14:03:16.764Z,5.00
2018-12-26T14:05:45.366Z,4.90
2018-12-26T14:08:14.055Z,4.80
2018-12-26T14:10:42.738Z,4.80
2018-12-26T14:13:11.334Z,4.80
2018-12-26T14:15:40.057Z,4.80
2018-12-26T14:18:08.641Z,4.70
2018-12-26T14:20:37.327Z,4.70
2018-12-26T14:23:05.929Z,4.50
2018-12-26T14:25:34.559Z,4.70
2018-12-26T14:28:03.722Z,4.70
2018-12-26T14:30:32.697Z,4.60
2018-12-26T14:33:01.398Z,4.80
2018-12-26T14:35:30.390Z,4.60
2018-12-26T14:37:58.958Z,4.60
2018-12-26T14:40:27.630Z,4.70
2018-12-26T14:42:56.345Z,4.50
2018-12-26T14:45:24.970Z,4.30
2018-12-26T14:47:53.583Z,4.40
2018-12-26T14:50:22.168Z,4.40
2018-12-26T14:52:50.829Z,4.20
2018-12-26T14:55:19.558Z,4.30
2018-12-26T14:57:48.425Z,4.30
2018-12-26T15:00:20.070Z,4.20
2018-12-26T15:02:47.678Z,4.20
2018-12-26T15:05:16.300Z,4.20
2018-12-26T15:07:45.143Z,4.20
2018-12-26T15:10:14.206Z,4.10
2018-12-26T15:12:43.298Z,4.10
2018-12-26T15:15:11.955Z,3.90
2018-12-26T15:17:40.993Z,4.00
2018-12-26T15:20:09.637Z,3.90
2018-12-26T15:22:38.651Z,3.80
2018-12-26T15:25:08.424Z,3.70
2018-12-26T15:27:37.117Z,3.70
2018-12-26T15:30:06.240Z,3.70
2018-12-26T15:32:34.926Z,3.60
2018-12-26T15:35:03.782Z,3.60
2018-12-26T15:37:32.467Z,3.50
2018-12-26T15:40:01.167Z,3.40
2018-12-26T15:42:29.856Z,3.30
2018-12-26T16:56:46.832Z,2.60
2018-12-26T16:59:15.464Z,2.70
2018-12-26T17:01:44.057Z,2.60
2018-12-26T17:04:12.780Z,2.60
2018-12-26T17:06:41.463Z,2.70
2018-12-26T17:09:10.812Z,2.70
2018-12-26T17:11:39.399Z,2.60
2018-12-26T17:14:09.972Z,2.60
2018-12-26T17:16:38.860Z,2.60
2018-12-26T17:19:07.954Z,2.50
2018-12-26T17:21:36.514Z,2.50
2018-12-26T17:24:05.519Z,2.50
2018-12-26T17:26:34.519Z,2.40
2018-12-26T17:29:03.490Z,2.50
2018-12-26T17:31:32.164Z,2.50
2018-12-26T17:34:01.269Z,2.40
2018-12-26T17:36:29.853Z,2.40
2018-12-26T17:38:58.918Z,2.40
2018-12-26T18:11:41.949Z,2.10
2018-12-26T18:14:10.603Z,2.20
2018-12-26T18:16:39.254Z,2.10
2018-12-26T18:19:07.969Z,2.10
2018-12-26T18:21:37.095Z,2.10
2018-12-26T18:24:05.905Z,2.00
2018-12-26T18:26:34.645Z,2.00
2018-12-26T18:29:03.228Z,2.00
2018-12-26T18:31:31.964Z,2.00
2018-12-26T18:34:00.794Z,2.00
2018-12-26T18:36:29.832Z,2.00
2018-12-26T18:38:58.702Z,2.00
2018-12-26T18:41:27.872Z,2.00
2018-12-26T18:43:56.555Z,2.10
2018-12-26T18:46:25.201Z,2.00
2018-12-26T18:48:53.828Z,2.00
2018-12-26T18:51:22.465Z,1.90
2018-12-26T18:53:51.190Z,2.00
2018-12-26T18:56:19.922Z,2.00
2018-12-26T18:58:48.489Z,2.00
2018-12-26T19:01:17.110Z,2.00
2018-12-26T19:03:45.722Z,1.90
2018-12-26T19:06:14.847Z,1.90
2018-12-26T19:08:43.506Z,1.90
2018-12-26T19:11:12.193Z,1.80
2018-12-26T19:13:40.779Z,1.80
2018-12-26T19:16:09.801Z,1.70
2018-12-26T19:18:39.198Z,1.60
2018-12-26T19:21:07.769Z,1.60
2018-12-26T19:23:36.424Z,1.60
2018-12-26T19:26:05.230Z,1.40
2018-12-26T19:28:33.905Z,1.50
2018-12-26T19:31:02.808Z,1.50
2018-12-26T19:33:32.782Z,1.50
2018-12-26T19:36:01.715Z,1.50
2018-12-26T19:38:30.368Z,1.30
2018-12-26T19:40:59.466Z,1.30
2018-12-26T19:43:28.197Z,1.30
2018-12-26T19:45:57.071Z,1.40
2018-12-26T19:48:25.649Z,1.50
2018-12-26T19:50:54.412Z,1.50
2018-12-26T19:53:23.009Z,1.40
2018-12-26T19:55:51.674Z,1.30
2018-12-26T19:58:20.370Z,1.20
2018-12-26T20:00:49.295Z,1.30
2018-12-26T20:03:17.931Z,1.20
2018-12-26T20:05:46.718Z,1.30
2018-12-26T20:08:15.320Z,1.30
2018-12-26T20:10:43.987Z,1.30
2018-12-26T20:13:12.660Z,1.40
2018-12-26T20:15:41.266Z,1.50
2018-12-26T20:18:09.952Z,1.50
2018-12-26T20:20:38.621Z,1.60
2018-12-26T20:23:07.657Z,1.60
2018-12-26T20:25:36.342Z,1.50
2018-12-26T20:28:05.081Z,1.60
2018-12-26T20:30:33.750Z,1.60
2018-12-26T20:33:02.806Z,1.70
2018-12-26T20:35:31.546Z,1.70
2018-12-26T20:38:00.640Z,1.70
2018-12-26T20:40:29.550Z,1.80
2018-12-26T20:42:58.564Z,1.80
2018-12-26T20:45:27.611Z,1.80
2018-12-26T20:47:56.530Z,1.80
2018-12-26T20:50:25.116Z,1.80
2018-12-26T20:52:53.814Z,1.80
2018-12-26T20:55:22.508Z,1.80
2018-12-26T20:57:51.137Z,1.90
2018-12-26T21:00:20.055Z,1.90
2018-12-26T21:02:48.734Z,1.90
2018-12-26T21:05:17.500Z,1.90
2018-12-26T21:07:46.097Z,2.00
2018-12-26T21:10:15.116Z,2.00
2018-12-26T21:12:43.762Z,2.00
2018-12-26T21:15:12.442Z,2.00
2018-12-26T21:17:41.053Z,2.10
2018-12-26T21:20:10.131Z,2.10
2018-12-26T21:22:38.717Z,2.00
2018-12-26T21:25:07.982Z,2.10
2018-12-26T21:27:37.120Z,2.10
2018-12-26T21:30:08.789Z,2.20
2018-12-26T21:32:37.430Z,2.20
2018-12-26T21:35:06.081Z,2.20
2018-12-26T21:37:34.742Z,2.20
2018-12-26T21:40:04.022Z,2.20
2018-12-26T21:42:32.610Z,2.20
2018-12-26T21:45:01.303Z,2.20
2018-12-26T21:47:30.353Z,2.10
2018-12-26T21:49:58.973Z,2.20
2018-12-26T21:52:27.560Z,2.20
2018-12-26T21:54:56.196Z,2.20
2018-12-26T21:57:24.789Z,2.20
2018-12-26T21:59:53.473Z,2.20
2018-12-26T22:02:22.868Z,2.20
2018-12-26T22:04:51.601Z,2.20
2018-12-26T22:07:20.689Z,2.30
2018-12-26T22:09:49.261Z,2.30
2018-12-26T22:12:18.143Z,2.20
2018-12-26T22:14:47.142Z,2.20
2018-12-26T22:17:17.747Z,2.20
2018-12-26T22:19:46.319Z,2.20
2018-12-26T22:22:14.900Z,2.20
2018-12-26T22:24:43.502Z,2.20
2018-12-26T22:27:12.166Z,2.20
2018-12-26T22:29:40.877Z,2.30
2018-12-26T22:32:09.471Z,2.30
2018-12-26T22:34:38.115Z,2.30
2018-12-26T22:37:07.131Z,2.20
2018-12-26T22:39:35.738Z,2.30
2018-12-26T22:42:04.481Z,2.20
2018-12-26T22:44:33.398Z,2.20
2018-12-26T22:47:01.984Z,2.30
2018-12-26T22:49:30.632Z,2.30
2018-12-26T22:51:59.658Z,2.30
2018-12-26T22:54:28.313Z,2.20
2018-12-26T22:56:56.886Z,2.30
2018-12-26T22:59:25.564Z,2.30
2018-12-26T23:01:54.260Z,2.20
2018-12-26T23:04:22.864Z,2.30
2018-12-26T23:06:51.830Z,2.30
2018-12-26T23:09:20.617Z,2.40
2018-12-26T23:11:49.341Z,2.30
2018-12-26T23:14:18.196Z,2.40
2018-12-26T23:16:48.608Z,2.40
2018-12-26T23:19:17.158Z,2.40
2018-12-26T23:21:45.783Z,2.40
2018-12-26T23:24:14.794Z,2.30
2018-12-26T23:26:43.796Z,2.30
2018-12-26T23:29:12.379Z,2.20
2018-12-26T23:31:41.358Z,2.20
2018-12-26T23:34:09.949Z,2.20
2018-12-26T23:36:38.935Z,2.20
2018-12-26T23:39:07.687Z,2.20
2018-12-26T23:41:36.477Z,2.30
2018-12-26T23:44:05.191Z,2.20
2018-12-26T23:46:33.897Z,2.20
2018-12-26T23:49:02.536Z,2.20
2018-12-26T23:51:31.216Z,2.10
2018-12-26T23:54:00.134Z,2.10
2018-12-26T23:56:29.206Z,2.10
2018-12-26T23:58:57.856Z,2.00
